sensor_id;sensor_type;location;lat;lon;timestamp;pressure;altitude;pressure_sealevel;temperature;humidity
40372;BME280;28564;53.346;-6.554;2022-11-20T00:00:54;99794.81;;;9.87;58.26
40372;BME280;28564;53.346;-6.554;2022-11-20T00:03:21;99794.85;;;10.10;58.06
40372;BME280;28564;53.346;-6.554;2022-11-20T00:05:49;99799.36;;;10.04;58.01
40372;BME280;28564;53.346;-6.554;2022-11-20T00:08:16;99800.41;;;10.18;58.18
40372;BME280;28564;53.346;-6.554;2022-11-20T00:10:43;99799.98;;;9.93;58.04
40372;BME280;28564;53.346;-6.554;2022-11-20T00:13:10;99801.97;;;9.68;58.05
40372;BME280;28564;53.346;-6.554;2022-11-20T00:15:38;99805.03;;;10.09;57.91
40372;BME280;28564;53.346;-6.554;2022-11-20T00:18:05;99807.52;;;9.63;57.81
40372;BME280;28564;53.346;-6.554;2022-11-20T00:20:33;99804.45;;;9.80;57.59
40372;BME280;28564;53.346;-6.554;2022-11-20T00:23:00;99803.85;;;9.75;57.67
40372;BME280;28564;53.346;-6.554;2022-11-20T00:25:27;99801.02;;;9.47;57.68
40372;BME280;28564;53.346;-6.554;2022-11-20T00:27:55;99801.57;;;9.88;57.80
40372;BME280;28564;53.346;-6.554;2022-11-20T00:30:22;99805.16;;;9.64;57.78
40372;BME280;28564;53.346;-6.554;2022-11-20T00:32:49;99806.65;;;9.61;57.71
40372;BME280;28564;53.346;-6.554;2022-11-20T00:35:17;99804.57;;;9.59;57.45
40372;BME280;28564;53.346;-6.554;2022-11-20T00:37:44;99809.28;;;9.75;57.48
40372;BME280;28564;53.346;-6.554;2022-11-20T00:40:12;99803.02;;;9.71;57.47
40372;BME280;28564;53.346;-6.554;2022-11-20T00:42:39;99803.40;;;9.44;57.48
40372;BME280;28564;53.346;-6.554;2022-11-20T00:45:07;99806.59;;;9.64;57.49
40372;BME280;28564;53.346;-6.554;2022-11-20T00:47:34;99807.94;;;9.39;57.42
40372;BME280;28564;53.346;-6.554;2022-11-20T00:50:02;99810.31;;;9.36;57.41
40372;BME280;28564;53.346;-6.554;2022-11-20T00:52:29;99809.15;;;9.33;57.38
40372;BME280;28564;53.346;-6.554;2022-11-20T00:54:56;99806.80;;;9.51;57.40
40372;BME280;28564;53.346;-6.554;2022-11-20T00:57:23;99802.51;;;9.46;57.36
40372;BME280;28564;53.346;-6.554;2022-11-20T00:59:51;99805.56;;;9.42;57.46
40372;BME280;28564;53.346;-6.554;2022-11-20T01:02:18;99802.30;;;9.40;57.36
40372;BME280;28564;53.346;-6.554;2022-11-20T01:04:45;99801.88;;;9.35;57.36
40372;BME280;28564;53.346;-6.554;2022-11-20T01:07:13;99803.84;;;9.33;57.49
40372;BME280;28564;53.346;-6.554;2022-11-20T01:09:40;99804.09;;;9.32;57.49
40372;BME280;28564;53.346;-6.554;2022-11-20T01:12:07;99802.18;;;9.32;57.73
40372;BME280;28564;53.346;-6.554;2022-11-20T01:14:35;99798.90;;;9.29;57.79
40372;BME280;28564;53.346;-6.554;2022-11-20T01:17:03;99796.38;;;9.28;57.68
40372;BME280;28564;53.346;-6.554;2022-11-20T01:19:30;99800.14;;;9.27;57.76
40372;BME280;28564;53.346;-6.554;2022-11-20T01:21:57;99796.89;;;9.26;57.70
40372;BME280;28564;53.346;-6.554;2022-11-20T01:24:25;99791.59;;;9.24;57.67
40372;BME280;28564;53.346;-6.554;2022-11-20T01:26:52;99801.48;;;9.23;57.76
40372;BME280;28564;53.346;-6.554;2022-11-20T01:29:21;99800.66;;;9.20;57.68
40372;BME280;28564;53.346;-6.554;2022-11-20T01:31:49;99800.09;;;9.18;57.71
40372;BME280;28564;53.346;-6.554;2022-11-20T01:34:18;99806.80;;;9.16;57.72
40372;BME280;28564;53.346;-6.554;2022-11-20T01:36:46;99803.98;;;9.13;57.97
40372;BME280;28564;53.346;-6.554;2022-11-20T01:39:15;99814.22;;;8.91;57.78
40372;BME280;28564;53.346;-6.554;2022-11-20T01:41:44;99813.12;;;8.88;58.19
40372;BME280;28564;53.346;-6.554;2022-11-20T01:44:13;99816.47;;;9.13;58.09
40372;BME280;28564;53.346;-6.554;2022-11-20T01:46:48;99818.29;;;9.16;57.91
40372;BME280;28564;53.346;-6.554;2022-11-20T01:49:21;99817.31;;;9.13;57.86
40372;BME280;28564;53.346;-6.554;2022-11-20T01:51:52;99816.46;;;9.12;57.81
40372;BME280;28564;53.346;-6.554;2022-11-20T01:54:22;99815.24;;;9.13;57.84
40372;BME280;28564;53.346;-6.554;2022-11-20T01:56:55;99812.97;;;9.08;57.94
40372;BME280;28564;53.346;-6.554;2022-11-20T01:59:24;99815.16;;;9.06;57.93
40372;BME280;28564;53.346;-6.554;2022-11-20T02:01:53;99815.16;;;9.07;57.87
40372;BME280;28564;53.346;-6.554;2022-11-20T02:04:21;99814.25;;;9.07;57.84
40372;BME280;28564;53.346;-6.554;2022-11-20T02:06:53;99813.65;;;9.13;57.90
40372;BME280;28564;53.346;-6.554;2022-11-20T02:09:22;99824.34;;;9.45;58.14
40372;BME280;28564;53.346;-6.554;2022-11-20T02:11:49;99821.58;;;9.31;57.98
40372;BME280;28564;53.346;-6.554;2022-11-20T02:14:17;99831.06;;;9.28;57.99
40372;BME280;28564;53.346;-6.554;2022-11-20T02:16:45;99826.21;;;9.24;58.02
40372;BME280;28564;53.346;-6.554;2022-11-20T02:19:19;99814.75;;;9.26;58.02
40372;BME280;28564;53.346;-6.554;2022-11-20T02:21:59;99823.86;;;9.20;57.95
40372;BME280;28564;53.346;-6.554;2022-11-20T02:24:29;99818.39;;;9.13;58.29
40372;BME280;28564;53.346;-6.554;2022-11-20T02:26:59;99823.02;;;8.71;58.63
40372;BME280;28564;53.346;-6.554;2022-11-20T02:29:32;99814.22;;;8.92;58.47
40372;BME280;28564;53.346;-6.554;2022-11-20T02:32:01;99823.35;;;8.90;58.20
40372;BME280;28564;53.346;-6.554;2022-11-20T02:34:29;99820.05;;;8.90;57.86
40372;BME280;28564;53.346;-6.554;2022-11-20T02:36:57;99814.27;;;9.15;57.70
40372;BME280;28564;53.346;-6.554;2022-11-20T02:39:27;99812.94;;;9.10;57.62
40372;BME280;28564;53.346;-6.554;2022-11-20T02:41:56;99806.57;;;9.12;57.53
40372;BME280;28564;53.346;-6.554;2022-11-20T02:44:23;99809.97;;;8.80;57.34
40372;BME280;28564;53.346;-6.554;2022-11-20T02:46:50;99809.57;;;8.84;57.12
40372;BME280;28564;53.346;-6.554;2022-11-20T02:49:17;99806.04;;;8.74;57.07
40372;BME280;28564;53.346;-6.554;2022-11-20T02:51:45;99811.85;;;8.71;57.07
40372;BME280;28564;53.346;-6.554;2022-11-20T02:54:12;99817.67;;;8.72;56.92
40372;BME280;28564;53.346;-6.554;2022-11-20T02:56:40;99819.35;;;9.01;56.85
40372;BME280;28564;53.346;-6.554;2022-11-20T02:59:07;99820.80;;;9.13;56.80
40372;BME280;28564;53.346;-6.554;2022-11-20T03:01:35;99823.46;;;8.68;56.67
40372;BME280;28564;53.346;-6.554;2022-11-20T03:04:02;99824.56;;;8.67;56.61
40372;BME280;28564;53.346;-6.554;2022-11-20T03:06:29;99820.98;;;8.91;56.55
40372;BME280;28564;53.346;-6.554;2022-11-20T03:08:57;99824.47;;;8.54;56.56
40372;BME280;28564;53.346;-6.554;2022-11-20T03:11:24;99831.58;;;8.69;56.62
40372;BME280;28564;53.346;-6.554;2022-11-20T03:13:51;99822.85;;;8.79;56.62
40372;BME280;28564;53.346;-6.554;2022-11-20T03:16:20;99824.03;;;8.58;56.46
40372;BME280;28564;53.346;-6.554;2022-11-20T03:18:48;99817.10;;;8.81;56.40
40372;BME280;28564;53.346;-6.554;2022-11-20T03:21:16;99816.38;;;8.20;56.36
40372;BME280;28564;53.346;-6.554;2022-11-20T03:23:44;99807.22;;;8.30;56.29
40372;BME280;28564;53.346;-6.554;2022-11-20T03:26:14;99801.49;;;8.36;56.34
40372;BME280;28564;53.346;-6.554;2022-11-20T03:28:45;99797.78;;;8.90;56.34
40372;BME280;28564;53.346;-6.554;2022-11-20T03:31:15;99790.69;;;8.67;56.15
40372;BME280;28564;53.346;-6.554;2022-11-20T03:33:43;99794.16;;;8.42;56.24
40372;BME280;28564;53.346;-6.554;2022-11-20T03:36:12;99788.22;;;8.43;56.17
40372;BME280;28564;53.346;-6.554;2022-11-20T03:38:40;99790.96;;;8.39;56.04
40372;BME280;28564;53.346;-6.554;2022-11-20T03:41:09;99796.33;;;8.40;56.13
40372;BME280;28564;53.346;-6.554;2022-11-20T03:43:37;99794.60;;;8.43;56.09
40372;BME280;28564;53.346;-6.554;2022-11-20T03:46:06;99799.36;;;8.67;56.12
40372;BME280;28564;53.346;-6.554;2022-11-20T03:48:33;99801.31;;;8.89;56.23
40372;BME280;28564;53.346;-6.554;2022-11-20T03:51:09;99805.55;;;8.32;56.31
40372;BME280;28564;53.346;-6.554;2022-11-20T03:53:36;99806.14;;;8.79;56.36
40372;BME280;28564;53.346;-6.554;2022-11-20T03:56:04;99803.85;;;8.39;56.53
40372;BME280;28564;53.346;-6.554;2022-11-20T03:58:32;99798.34;;;8.40;56.44
40372;BME280;28564;53.346;-6.554;2022-11-20T04:01:05;99799.39;;;8.36;56.49
40372;BME280;28564;53.346;-6.554;2022-11-20T04:03:32;99796.02;;;8.41;56.41
40372;BME280;28564;53.346;-6.554;2022-11-20T04:06:02;99796.32;;;8.68;56.29
40372;BME280;28564;53.346;-6.554;2022-11-20T04:08:30;99793.35;;;8.42;56.21
40372;BME280;28564;53.346;-6.554;2022-11-20T04:11:08;99790.55;;;8.64;56.38
40372;BME280;28564;53.346;-6.554;2022-11-20T04:13:36;99791.29;;;8.36;56.38
40372;BME280;28564;53.346;-6.554;2022-11-20T04:16:04;99796.08;;;8.56;56.40
40372;BME280;28564;53.346;-6.554;2022-11-20T04:18:31;99798.28;;;8.33;56.48
40372;BME280;28564;53.346;-6.554;2022-11-20T04:20:59;99799.85;;;8.82;56.47
40372;BME280;28564;53.346;-6.554;2022-11-20T04:23:27;99803.13;;;8.32;56.48
40372;BME280;28564;53.346;-6.554;2022-11-20T04:25:54;99809.45;;;8.33;56.59
40372;BME280;28564;53.346;-6.554;2022-11-20T04:28:22;99804.92;;;8.81;56.62
40372;BME280;28564;53.346;-6.554;2022-11-20T04:30:49;99804.07;;;8.30;56.61
40372;BME280;28564;53.346;-6.554;2022-11-20T04:33:16;99804.97;;;8.48;56.83
40372;BME280;28564;53.346;-6.554;2022-11-20T04:35:47;99803.19;;;8.52;56.95
40372;BME280;28564;53.346;-6.554;2022-11-20T04:38:14;99812.26;;;8.53;56.94
40372;BME280;28564;53.346;-6.554;2022-11-20T04:40:42;99810.93;;;8.73;57.31
40372;BME280;28564;53.346;-6.554;2022-11-20T04:43:09;99820.32;;;8.16;57.45
40372;BME280;28564;53.346;-6.554;2022-11-20T04:45:36;99813.92;;;8.49;57.46
40372;BME280;28564;53.346;-6.554;2022-11-20T04:48:04;99813.42;;;8.74;57.34
40372;BME280;28564;53.346;-6.554;2022-11-20T04:50:32;99812.69;;;8.29;57.18
40372;BME280;28564;53.346;-6.554;2022-11-20T04:52:59;99812.93;;;8.75;57.37
40372;BME280;28564;53.346;-6.554;2022-11-20T04:55:27;99813.37;;;8.57;57.38
40372;BME280;28564;53.346;-6.554;2022-11-20T04:57:53;99818.72;;;8.19;57.26
40372;BME280;28564;53.346;-6.554;2022-11-20T05:00:21;99824.54;;;8.51;57.15
40372;BME280;28564;53.346;-6.554;2022-11-20T05:02:48;99823.77;;;8.52;57.01
40372;BME280;28564;53.346;-6.554;2022-11-20T05:05:15;99827.34;;;8.24;56.92
40372;BME280;28564;53.346;-6.554;2022-11-20T05:07:43;99828.61;;;8.23;56.84
40372;BME280;28564;53.346;-6.554;2022-11-20T05:10:10;99834.00;;;8.73;56.75
40372;BME280;28564;53.346;-6.554;2022-11-20T05:12:38;99835.25;;;8.70;56.62
40372;BME280;28564;53.346;-6.554;2022-11-20T05:15:05;99838.22;;;8.45;56.65
40372;BME280;28564;53.346;-6.554;2022-11-20T05:17:33;99838.97;;;8.42;56.64
40372;BME280;28564;53.346;-6.554;2022-11-20T05:20:01;99840.97;;;8.34;56.68
40372;BME280;28564;53.346;-6.554;2022-11-20T05:22:28;99839.38;;;8.34;56.66
40372;BME280;28564;53.346;-6.554;2022-11-20T05:24:55;99841.16;;;8.34;56.58
40372;BME280;28564;53.346;-6.554;2022-11-20T05:27:23;99840.08;;;8.46;56.67
40372;BME280;28564;53.346;-6.554;2022-11-20T05:29:50;99839.88;;;8.29;56.50
40372;BME280;28564;53.346;-6.554;2022-11-20T05:32:17;99840.40;;;8.28;56.56
40372;BME280;28564;53.346;-6.554;2022-11-20T05:34:45;99832.61;;;8.51;56.55
40372;BME280;28564;53.346;-6.554;2022-11-20T05:37:12;99833.75;;;8.30;56.49
40372;BME280;28564;53.346;-6.554;2022-11-20T05:39:39;99832.96;;;8.46;56.39
40372;BME280;28564;53.346;-6.554;2022-11-20T05:42:07;99836.05;;;8.23;56.39
40372;BME280;28564;53.346;-6.554;2022-11-20T05:44:34;99831.60;;;8.49;56.35
40372;BME280;28564;53.346;-6.554;2022-11-20T05:47:01;99834.96;;;8.22;56.20
40372;BME280;28564;53.346;-6.554;2022-11-20T05:49:29;99839.09;;;8.41;56.13
40372;BME280;28564;53.346;-6.554;2022-11-20T05:51:56;99835.78;;;8.17;56.10
40372;BME280;28564;53.346;-6.554;2022-11-20T05:54:23;99836.67;;;8.34;56.08
40372;BME280;28564;53.346;-6.554;2022-11-20T05:56:51;99843.43;;;8.32;56.16
40372;BME280;28564;53.346;-6.554;2022-11-20T05:59:18;99835.94;;;8.31;56.00
40372;BME280;28564;53.346;-6.554;2022-11-20T06:01:45;99833.82;;;8.27;56.02
40372;BME280;28564;53.346;-6.554;2022-11-20T06:04:13;99826.82;;;8.22;56.11
40372;BME280;28564;53.346;-6.554;2022-11-20T06:06:40;99821.01;;;8.19;56.12
40372;BME280;28564;53.346;-6.554;2022-11-20T06:09:07;99817.58;;;8.21;56.24
40372;BME280;28564;53.346;-6.554;2022-11-20T06:11:35;99806.63;;;8.17;56.05
40372;BME280;28564;53.346;-6.554;2022-11-20T06:14:02;99796.79;;;7.64;56.03
40372;BME280;28564;53.346;-6.554;2022-11-20T06:16:30;99792.48;;;7.90;56.00
40372;BME280;28564;53.346;-6.554;2022-11-20T06:18:57;99783.61;;;7.87;55.99
40372;BME280;28564;53.346;-6.554;2022-11-20T06:21:24;99783.54;;;8.05;56.03
40372;BME280;28564;53.346;-6.554;2022-11-20T06:23:53;99790.34;;;8.04;56.08
40372;BME280;28564;53.346;-6.554;2022-11-20T06:26:21;99787.00;;;8.02;56.08
40372;BME280;28564;53.346;-6.554;2022-11-20T06:28:49;99779.11;;;8.03;56.00
40372;BME280;28564;53.346;-6.554;2022-11-20T06:31:20;99780.75;;;8.00;55.99
40372;BME280;28564;53.346;-6.554;2022-11-20T06:33:48;99782.15;;;8.05;56.02
40372;BME280;28564;53.346;-6.554;2022-11-20T06:36:17;99778.01;;;8.07;56.07
40372;BME280;28564;53.346;-6.554;2022-11-20T06:38:46;99776.69;;;8.07;56.00
40372;BME280;28564;53.346;-6.554;2022-11-20T06:41:15;99778.75;;;8.09;56.06
40372;BME280;28564;53.346;-6.554;2022-11-20T06:43:43;99785.76;;;8.12;56.17
40372;BME280;28564;53.346;-6.554;2022-11-20T06:46:11;99786.34;;;8.12;56.02
40372;BME280;28564;53.346;-6.554;2022-11-20T06:48:40;99785.18;;;7.91;56.02
40372;BME280;28564;53.346;-6.554;2022-11-20T06:51:08;99782.51;;;8.10;55.94
40372;BME280;28564;53.346;-6.554;2022-11-20T06:53:36;99783.13;;;7.90;56.05
40372;BME280;28564;53.346;-6.554;2022-11-20T06:56:05;99784.58;;;8.13;55.98
40372;BME280;28564;53.346;-6.554;2022-11-20T06:58:33;99779.74;;;8.14;55.96
40372;BME280;28564;53.346;-6.554;2022-11-20T07:01:03;99780.91;;;8.16;55.97
40372;BME280;28564;53.346;-6.554;2022-11-20T07:03:31;99786.39;;;7.93;55.95
40372;BME280;28564;53.346;-6.554;2022-11-20T07:06:00;99792.39;;;8.14;55.94
40372;BME280;28564;53.346;-6.554;2022-11-20T07:08:28;99791.54;;;7.86;55.62
40372;BME280;28564;53.346;-6.554;2022-11-20T07:10:57;99791.70;;;8.04;55.58
40372;BME280;28564;53.346;-6.554;2022-11-20T07:13:25;99784.02;;;8.02;55.58
40372;BME280;28564;53.346;-6.554;2022-11-20T07:15:52;99776.06;;;8.02;55.66
40372;BME280;28564;53.346;-6.554;2022-11-20T07:18:19;99775.57;;;7.99;55.55
40372;BME280;28564;53.346;-6.554;2022-11-20T07:20:47;99772.01;;;7.75;55.56
40372;BME280;28564;53.346;-6.554;2022-11-20T07:23:14;99774.06;;;7.96;55.63
40372;BME280;28564;53.346;-6.554;2022-11-20T07:25:41;99779.89;;;7.92;55.44
40372;BME280;28564;53.346;-6.554;2022-11-20T07:28:09;99781.27;;;7.87;55.42
40372;BME280;28564;53.346;-6.554;2022-11-20T07:30:36;99788.48;;;7.88;55.42
40372;BME280;28564;53.346;-6.554;2022-11-20T07:33:03;99792.36;;;7.89;55.43
40372;BME280;28564;53.346;-6.554;2022-11-20T07:35:30;99798.46;;;8.10;55.39
40372;BME280;28564;53.346;-6.554;2022-11-20T07:37:58;99803.77;;;7.86;55.33
40372;BME280;28564;53.346;-6.554;2022-11-20T07:40:25;99805.12;;;7.85;55.34
40372;BME280;28564;53.346;-6.554;2022-11-20T07:42:54;99803.88;;;7.85;55.44
40372;BME280;28564;53.346;-6.554;2022-11-20T07:45:23;99804.14;;;7.88;55.43
40372;BME280;28564;53.346;-6.554;2022-11-20T07:47:51;99798.87;;;7.90;55.55
40372;BME280;28564;53.346;-6.554;2022-11-20T07:50:19;99797.06;;;7.95;55.62
40372;BME280;28564;53.346;-6.554;2022-11-20T07:52:47;99795.22;;;7.74;55.58
40372;BME280;28564;53.346;-6.554;2022-11-20T07:55:14;99800.67;;;7.97;55.50
40372;BME280;28564;53.346;-6.554;2022-11-20T07:57:42;99796.77;;;8.01;55.51
40372;BME280;28564;53.346;-6.554;2022-11-20T08:00:11;99795.96;;;8.00;55.60
40372;BME280;28564;53.346;-6.554;2022-11-20T08:02:39;99791.77;;;8.11;55.71
40372;BME280;28564;53.346;-6.554;2022-11-20T08:05:07;99788.80;;;7.97;55.69
40372;BME280;28564;53.346;-6.554;2022-11-20T08:07:36;99792.02;;;8.25;55.60
40372;BME280;28564;53.346;-6.554;2022-11-20T08:10:04;99785.94;;;8.30;55.59
40372;BME280;28564;53.346;-6.554;2022-11-20T08:12:31;99785.24;;;8.12;55.52
40372;BME280;28564;53.346;-6.554;2022-11-20T08:14:59;99791.69;;;8.41;55.54
40372;BME280;28564;53.346;-6.554;2022-11-20T08:17:26;99789.54;;;7.94;55.47
40372;BME280;28564;53.346;-6.554;2022-11-20T08:19:53;99791.51;;;8.22;55.30
40372;BME280;28564;53.346;-6.554;2022-11-20T08:22:21;99789.61;;;8.30;55.42
40372;BME280;28564;53.346;-6.554;2022-11-20T08:24:48;99793.30;;;8.58;55.13
40372;BME280;28564;53.346;-6.554;2022-11-20T08:27:16;99800.64;;;8.46;55.17
40372;BME280;28564;53.346;-6.554;2022-11-20T08:29:43;99799.73;;;8.58;55.14
40372;BME280;28564;53.346;-6.554;2022-11-20T08:32:10;99800.26;;;8.47;55.40
40372;BME280;28564;53.346;-6.554;2022-11-20T08:34:38;99808.12;;;8.88;55.46
40372;BME280;28564;53.346;-6.554;2022-11-20T08:37:05;99811.46;;;8.96;55.34
40372;BME280;28564;53.346;-6.554;2022-11-20T08:39:32;99813.92;;;8.77;55.11
40372;BME280;28564;53.346;-6.554;2022-11-20T08:42:00;99813.08;;;8.92;55.38
40372;BME280;28564;53.346;-6.554;2022-11-20T08:44:27;99817.20;;;8.98;54.99
40372;BME280;28564;53.346;-6.554;2022-11-20T08:46:54;99815.13;;;9.04;54.80
40372;BME280;28564;53.346;-6.554;2022-11-20T08:49:21;99812.66;;;9.09;54.77
40372;BME280;28564;53.346;-6.554;2022-11-20T08:51:49;99807.93;;;9.16;54.76
40372;BME280;28564;53.346;-6.554;2022-11-20T08:54:16;99807.37;;;9.23;54.51
40372;BME280;28564;53.346;-6.554;2022-11-20T08:56:43;99797.41;;;9.29;54.35
40372;BME280;28564;53.346;-6.554;2022-11-20T08:59:11;99799.67;;;9.35;54.26
40372;BME280;28564;53.346;-6.554;2022-11-20T09:01:38;99805.17;;;9.39;53.86
40372;BME280;28564;53.346;-6.554;2022-11-20T09:04:05;99803.35;;;9.18;53.61
40372;BME280;28564;53.346;-6.554;2022-11-20T09:06:33;99805.51;;;9.46;54.01
40372;BME280;28564;53.346;-6.554;2022-11-20T09:08:59;99804.57;;;9.50;53.75
40372;BME280;28564;53.346;-6.554;2022-11-20T09:11:27;99806.27;;;9.33;53.57
40372;BME280;28564;53.346;-6.554;2022-11-20T09:13:54;99801.55;;;9.61;54.36
40372;BME280;28564;53.346;-6.554;2022-11-20T09:16:21;99797.82;;;9.67;54.08
40372;BME280;28564;53.346;-6.554;2022-11-20T09:18:50;99793.99;;;9.70;53.58
40372;BME280;28564;53.346;-6.554;2022-11-20T09:21:17;99790.88;;;9.75;53.47
40372;BME280;28564;53.346;-6.554;2022-11-20T09:23:44;99794.67;;;9.63;53.74
40372;BME280;28564;53.346;-6.554;2022-11-20T09:26:13;99791.39;;;9.90;53.41
40372;BME280;28564;53.346;-6.554;2022-11-20T09:28:41;99792.97;;;9.74;52.88
40372;BME280;28564;53.346;-6.554;2022-11-20T09:31:09;99793.55;;;9.56;52.87
40372;BME280;28564;53.346;-6.554;2022-11-20T09:33:36;99790.94;;;9.82;52.23
40372;BME280;28564;53.346;-6.554;2022-11-20T09:36:04;99791.19;;;10.15;52.64
40372;BME280;28564;53.346;-6.554;2022-11-20T09:38:32;99794.24;;;10.08;52.42
40372;BME280;28564;53.346;-6.554;2022-11-20T09:41:03;99796.60;;;10.08;52.61
40372;BME280;28564;53.346;-6.554;2022-11-20T09:43:41;99799.85;;;10.19;51.43
40372;BME280;28564;53.346;-6.554;2022-11-20T09:46:16;99799.18;;;10.40;51.57
40372;BME280;28564;53.346;-6.554;2022-11-20T09:48:55;99790.27;;;10.49;51.02
40372;BME280;28564;53.346;-6.554;2022-11-20T09:51:35;99791.48;;;10.55;50.95
40372;BME280;28564;53.346;-6.554;2022-11-20T09:54:14;99792.42;;;10.79;50.75
40372;BME280;28564;53.346;-6.554;2022-11-20T09:56:45;99793.43;;;10.63;50.26
40372;BME280;28564;53.346;-6.554;2022-11-20T09:59:29;99791.74;;;10.66;50.65
40372;BME280;28564;53.346;-6.554;2022-11-20T10:01:59;99787.78;;;10.94;49.93
40372;BME280;28564;53.346;-6.554;2022-11-20T10:04:30;99787.83;;;10.98;49.57
40372;BME280;28564;53.346;-6.554;2022-11-20T10:07:03;99788.79;;;10.86;50.91
40372;BME280;28564;53.346;-6.554;2022-11-20T10:09:35;99788.33;;;11.12;49.66
40372;BME280;28564;53.346;-6.554;2022-11-20T10:12:13;99784.11;;;10.53;49.85
40372;BME280;28564;53.346;-6.554;2022-11-20T10:14:55;99780.23;;;10.99;49.35
40372;BME280;28564;53.346;-6.554;2022-11-20T10:17:41;99778.19;;;11.00;49.40
40372;BME280;28564;53.346;-6.554;2022-11-20T10:20:17;99772.00;;;10.73;49.85
40372;BME280;28564;53.346;-6.554;2022-11-20T10:23:00;99765.51;;;10.92;49.70
40372;BME280;28564;53.346;-6.554;2022-11-20T10:25:37;99764.70;;;10.63;50.95
40372;BME280;28564;53.346;-6.554;2022-11-20T10:28:16;99761.38;;;10.37;50.03
40372;BME280;28564;53.346;-6.554;2022-11-20T10:30:50;99758.63;;;10.86;49.93
40372;BME280;28564;53.346;-6.554;2022-11-20T10:33:24;99756.86;;;11.24;49.37
40372;BME280;28564;53.346;-6.554;2022-11-20T10:36:04;99744.88;;;10.91;49.04
40372;BME280;28564;53.346;-6.554;2022-11-20T10:38:37;99740.70;;;10.98;49.82
40372;BME280;28564;53.346;-6.554;2022-11-20T10:41:06;99748.03;;;11.21;49.21
40372;BME280;28564;53.346;-6.554;2022-11-20T10:43:34;99769.81;;;11.28;49.73
40372;BME280;28564;53.346;-6.554;2022-11-20T10:46:04;99760.12;;;11.41;50.14
40372;BME280;28564;53.346;-6.554;2022-11-20T10:48:32;99756.25;;;11.53;50.83
40372;BME280;28564;53.346;-6.554;2022-11-20T10:51:10;99757.57;;;11.24;49.66
40372;BME280;28564;53.346;-6.554;2022-11-20T10:53:47;99770.26;;;11.02;49.64
40372;BME280;28564;53.346;-6.554;2022-11-20T10:56:21;99762.03;;;11.16;50.52
40372;BME280;28564;53.346;-6.554;2022-11-20T10:59:19;99769.77;;;10.97;49.50
40372;BME280;28564;53.346;-6.554;2022-11-20T11:01:52;99778.17;;;11.29;49.48
40372;BME280;28564;53.346;-6.554;2022-11-20T11:04:33;99785.06;;;11.01;49.85
40372;BME280;28564;53.346;-6.554;2022-11-20T11:07:10;99797.31;;;10.77;49.61
40372;BME280;28564;53.346;-6.554;2022-11-20T11:09:42;99793.96;;;10.67;50.03
40372;BME280;28564;53.346;-6.554;2022-11-20T11:12:10;99802.05;;;10.57;49.78
40372;BME280;28564;53.346;-6.554;2022-11-20T11:14:48;99798.51;;;10.50;50.37
40372;BME280;28564;53.346;-6.554;2022-11-20T11:17:22;99797.16;;;10.24;50.22
40372;BME280;28564;53.346;-6.554;2022-11-20T11:20:14;99787.70;;;10.17;50.89
40372;BME280;28564;53.346;-6.554;2022-11-20T11:22:44;99792.94;;;10.29;50.70
40372;BME280;28564;53.346;-6.554;2022-11-20T11:25:21;99789.97;;;10.41;50.45
40372;BME280;28564;53.346;-6.554;2022-11-20T11:27:49;99794.67;;;10.36;50.32
40372;BME280;28564;53.346;-6.554;2022-11-20T11:30:19;99798.00;;;10.21;50.13
40372;BME280;28564;53.346;-6.554;2022-11-20T11:32:47;99805.13;;;10.58;50.01
40372;BME280;28564;53.346;-6.554;2022-11-20T11:35:24;99810.30;;;10.58;49.60
40372;BME280;28564;53.346;-6.554;2022-11-20T11:37:54;99810.69;;;10.68;49.41
40372;BME280;28564;53.346;-6.554;2022-11-20T11:40:29;99814.89;;;10.85;49.82
40372;BME280;28564;53.346;-6.554;2022-11-20T11:43:01;99825.46;;;10.40;51.29
40372;BME280;28564;53.346;-6.554;2022-11-20T11:45:29;99820.67;;;10.17;52.92
40372;BME280;28564;53.346;-6.554;2022-11-20T11:47:58;99825.17;;;10.09;54.59
40372;BME280;28564;53.346;-6.554;2022-11-20T11:50:29;99817.37;;;10.28;55.34
40372;BME280;28564;53.346;-6.554;2022-11-20T11:53:02;99810.81;;;10.26;55.62
40372;BME280;28564;53.346;-6.554;2022-11-20T11:55:36;99807.34;;;10.27;55.57
40372;BME280;28564;53.346;-6.554;2022-11-20T11:58:16;99820.55;;;10.74;56.27
40372;BME280;28564;53.346;-6.554;2022-11-20T12:00:54;99810.81;;;11.12;55.83
40372;BME280;28564;53.346;-6.554;2022-11-20T12:03:27;99809.88;;;10.87;54.81
40372;BME280;28564;53.346;-6.554;2022-11-20T12:05:57;99805.53;;;11.77;53.64
40372;BME280;28564;53.346;-6.554;2022-11-20T12:08:30;99802.56;;;13.07;50.12
40372;BME280;28564;53.346;-6.554;2022-11-20T12:11:04;99802.41;;;14.40;47.22
40372;BME280;28564;53.346;-6.554;2022-11-20T12:13:41;99813.81;;;15.72;44.69
40372;BME280;28564;53.346;-6.554;2022-11-20T12:16:13;99800.64;;;16.50;40.90
40372;BME280;28564;53.346;-6.554;2022-11-20T12:18:42;99807.94;;;16.92;39.86
40372;BME280;28564;53.346;-6.554;2022-11-20T12:21:18;99809.03;;;17.79;38.47
40372;BME280;28564;53.346;-6.554;2022-11-20T12:23:58;99835.21;;;18.26;37.44
40372;BME280;28564;53.346;-6.554;2022-11-20T12:26:39;99824.09;;;18.70;37.21
40372;BME280;28564;53.346;-6.554;2022-11-20T12:29:17;99820.97;;;18.81;36.20
40372;BME280;28564;53.346;-6.554;2022-11-20T12:32:01;99824.58;;;19.14;35.37
40372;BME280;28564;53.346;-6.554;2022-11-20T12:34:41;99818.66;;;19.39;35.83
40372;BME280;28564;53.346;-6.554;2022-11-20T12:37:22;99804.99;;;17.67;36.54
40372;BME280;28564;53.346;-6.554;2022-11-20T12:39:55;99803.90;;;15.28;38.77
40372;BME280;28564;53.346;-6.554;2022-11-20T12:42:37;99814.20;;;14.18;40.33
40372;BME280;28564;53.346;-6.554;2022-11-20T12:46:08;99800.67;;;13.62;42.67
40372;BME280;28564;53.346;-6.554;2022-11-20T12:48:42;99810.96;;;12.84;44.66
40372;BME280;28564;53.346;-6.554;2022-11-20T12:51:29;99808.94;;;12.46;45.53
40372;BME280;28564;53.346;-6.554;2022-11-20T12:54:22;99816.88;;;11.73;46.41
40372;BME280;28564;53.346;-6.554;2022-11-20T12:56:57;99809.65;;;11.72;47.77
40372;BME280;28564;53.346;-6.554;2022-11-20T12:59:39;99818.17;;;11.04;48.15
40372;BME280;28564;53.346;-6.554;2022-11-20T13:02:18;99811.86;;;10.88;48.88
40372;BME280;28564;53.346;-6.554;2022-11-20T13:05:05;99804.09;;;10.93;49.01
40372;BME280;28564;53.346;-6.554;2022-11-20T13:07:36;99806.94;;;10.75;49.24
40372;BME280;28564;53.346;-6.554;2022-11-20T13:10:04;99805.53;;;10.57;49.99
40372;BME280;28564;53.346;-6.554;2022-11-20T13:12:43;99797.29;;;10.43;50.27